Time;durP1;ratioP1;P1;durP2;ratioP2;P2;SDS_P1;SDS_P2;PMS_P1;PMS_P2;Temp;Humidity;BMP_temperature;BMP_pressure;BME280_temperature;BME280_humidity;BME280_pressure;Samples;Min_cycle;Max_cycle;Signal;HPM_P1;HPM_P2
2022/09/12 00:00:46;;;;;;;4.13;2.20;;;;;;;;;;5026269;28;20397;-61
2022/09/12 00:03:12;;;;;;;3.45;2.60;;;;;;;;;;5029689;28;20056;-63
2022/09/12 00:05:42;;;;;;;5.28;1.98;;;;;;;;;;5027815;28;20394;-60
2022/09/12 00:08:08;;;;;;;2.55;2.08;;;;;;;;;;5028996;28;20022;-63
2022/09/12 00:10:37;;;;;;;2.85;2.33;;;;;;;;;;5028584;28;20108;-62
2022/09/12 00:13:03;;;;;;;3.20;2.30;;;;;;;;;;5028616;28;20139;-62
2022/09/12 00:15:29;;;;;;;3.72;2.50;;;;;;;;;;5028430;28;20401;-63
2022/09/12 00:17:55;;;;;;;4.50;2.33;;;;;;;;;;5027669;28;20401;-62
2022/09/12 00:20:21;;;;;;;3.08;2.42;;;;;;;;;;5027988;28;20048;-63
2022/09/12 00:22:47;;;;;;;3.22;2.03;;;;;;;;;;5012227;28;20033;-62
2022/09/12 00:25:13;;;;;;;3.08;2.00;;;;;;;;;;5029367;28;20033;-63
2022/09/12 00:27:39;;;;;;;5.10;1.90;;;;;;;;;;5024392;28;20044;-61
2022/09/12 00:30:05;;;;;;;2.65;2.08;;;;;;;;;;5023156;28;20029;-63
2022/09/12 00:32:31;;;;;;;4.50;2.08;;;;;;;;;;5027160;28;20468;-61
2022/09/12 00:34:57;;;;;;;2.25;1.92;;;;;;;;;;5028710;28;20017;-62
2022/09/12 00:37:23;;;;;;;2.53;1.77;;;;;;;;;;5029094;28;20492;-61
2022/09/12 00:39:49;;;;;;;2.67;2.08;;;;;;;;;;5026101;28;20033;-62
2022/09/12 00:42:15;;;;;;;3.80;1.95;;;;;;;;;;5029299;28;20029;-62
2022/09/12 00:44:43;;;;;;;3.00;2.10;;;;;;;;;;5025617;28;20037;-62
2022/09/12 00:47:23;;;;;;;2.72;1.85;;;;;;;;;;5023332;28;20030;-64
2022/09/12 00:49:51;;;;;;;4.35;1.65;;;;;;;;;;5028008;28;20030;-61
2022/09/12 00:52:36;;;;;;;2.40;1.85;;;;;;;;;;5029773;28;20105;-63
2022/09/12 00:55:02;;;;;;;3.22;2.35;;;;;;;;;;5029172;28;20022;-63
2022/09/12 00:57:32;;;;;;;2.97;2.30;;;;;;;;;;5029182;28;20029;-61
2022/09/12 01:00:00;;;;;;;3.00;2.00;;;;;;;;;;5027193;28;20029;-61
2022/09/12 01:02:27;;;;;;;2.72;2.20;;;;;;;;;;5010894;28;20021;-63
2022/09/12 01:04:54;;;;;;;2.30;2.10;;;;;;;;;;5018942;28;20033;-61
2022/09/12 01:07:20;;;;;;;5.38;2.38;;;;;;;;;;5028604;28;20108;-61
2022/09/12 01:09:47;;;;;;;2.60;1.90;;;;;;;;;;5028221;28;20051;-62
2022/09/12 01:12:14;;;;;;;2.53;2.10;;;;;;;;;;5026378;28;20029;-61
2022/09/12 01:14:40;;;;;;;4.47;2.38;;;;;;;;;;5029746;28;20029;-61
2022/09/12 01:17:06;;;;;;;4.70;1.90;;;;;;;;;;5027782;28;20105;-61
2022/09/12 01:19:51;;;;;;;4.07;2.33;;;;;;;;;;5029599;28;20050;-61
2022/09/12 01:22:26;;;;;;;4.18;2.25;;;;;;;;;;5029085;28;20558;-61
2022/09/12 01:24:58;;;;;;;2.78;1.70;;;;;;;;;;5030993;28;20384;-60
2022/09/12 01:27:39;;;;;;;2.95;1.90;;;;;;;;;;5015579;28;20037;-61
2022/09/12 01:30:16;;;;;;;3.45;2.22;;;;;;;;;;5031578;28;20032;-63
2022/09/12 01:33:01;;;;;;;4.25;2.28;;;;;;;;;;5004300;28;20032;-61
2022/09/12 01:35:40;;;;;;;3.20;2.38;;;;;;;;;;5031606;28;20473;-61
2022/09/12 01:38:10;;;;;;;2.78;2.17;;;;;;;;;;5033275;28;20520;-62
2022/09/12 01:40:43;;;;;;;2.33;2.13;;;;;;;;;;5031700;28;20109;-60
2022/09/12 01:43:34;;;;;;;3.33;2.20;;;;;;;;;;5025495;28;20038;-62
2022/09/12 01:46:08;;;;;;;3.30;2.50;;;;;;;;;;5032969;28;20396;-61
2022/09/12 01:48:36;;;;;;;6.03;2.50;;;;;;;;;;5032793;28;20029;-61
2022/09/12 01:51:06;;;;;;;6.07;2.80;;;;;;;;;;5029459;28;20083;-61
2022/09/12 01:53:44;;;;;;;2.30;2.00;;;;;;;;;;5031351;28;20022;-62
2022/09/12 01:56:23;;;;;;;7.38;2.05;;;;;;;;;;5029445;28;20034;-60
2022/09/12 01:58:52;;;;;;;2.45;2.10;;;;;;;;;;5030551;28;20099;-61
2022/09/12 02:01:24;;;;;;;3.65;2.03;;;;;;;;;;5031637;28;20480;-61
2022/09/12 02:03:54;;;;;;;5.32;2.15;;;;;;;;;;5029361;28;20040;-63
2022/09/12 02:06:23;;;;;;;2.70;2.10;;;;;;;;;;5028806;28;20029;-62
2022/09/12 02:08:54;;;;;;;5.05;2.22;;;;;;;;;;5033050;28;20082;-62
2022/09/12 02:11:21;;;;;;;4.20;2.22;;;;;;;;;;5012707;28;20025;-60
2022/09/12 02:13:55;;;;;;;3.95;2.90;;;;;;;;;;5030172;28;20021;-60
2022/09/12 02:16:25;;;;;;;4.45;2.85;;;;;;;;;;5014383;28;20548;-61
2022/09/12 02:18:56;;;;;;;2.70;2.10;;;;;;;;;;5030133;28;20046;-62
2022/09/12 02:21:24;;;;;;;5.45;2.17;;;;;;;;;;5031390;28;20444;-60
2022/09/12 02:23:55;;;;;;;2.33;2.10;;;;;;;;;;5030837;28;20053;-60
2022/09/12 02:26:25;;;;;;;4.68;2.15;;;;;;;;;;5031287;28;20037;-60
2022/09/12 02:28:51;;;;;;;2.83;2.03;;;;;;;;;;5026155;28;20500;-60
2022/09/12 02:31:27;;;;;;;3.13;2.38;;;;;;;;;;5007845;28;20026;-60
2022/09/12 02:33:56;;;;;;;4.43;1.75;;;;;;;;;;5028625;28;20029;-61
2022/09/12 02:36:40;;;;;;;3.88;2.55;;;;;;;;;;5026135;28;20029;-65
2022/09/12 02:39:06;;;;;;;3.10;2.00;;;;;;;;;;5032337;28;20033;-61
2022/09/12 02:41:32;;;;;;;2.40;2.10;;;;;;;;;;5028367;28;20071;-61
2022/09/12 02:43:58;;;;;;;3.75;2.30;;;;;;;;;;5032501;28;20060;-60
2022/09/12 02:46:36;;;;;;;2.42;2.10;;;;;;;;;;5030999;28;20148;-63
2022/09/12 02:49:02;;;;;;;2.35;2.00;;;;;;;;;;5030668;28;20461;-60
2022/09/12 02:51:28;;;;;;;2.45;1.90;;;;;;;;;;5018396;28;20038;-60
2022/09/12 02:53:54;;;;;;;2.70;1.88;;;;;;;;;;5012775;28;20392;-61
2022/09/12 02:56:25;;;;;;;4.95;2.33;;;;;;;;;;5030695;28;20033;-61
2022/09/12 02:58:52;;;;;;;3.30;2.25;;;;;;;;;;5030867;28;20836;-60
2022/09/12 03:01:36;;;;;;;2.72;2.00;;;;;;;;;;5030248;28;20036;-61
2022/09/12 03:04:17;;;;;;;2.88;2.35;;;;;;;;;;5028315;28;20033;-60
2022/09/12 03:07:02;;;;;;;2.60;2.15;;;;;;;;;;5029506;28;20038;-60
2022/09/12 03:09:38;;;;;;;3.58;2.13;;;;;;;;;;5028056;28;20358;-60
2022/09/12 03:12:22;;;;;;;3.75;2.50;;;;;;;;;;5016907;28;20037;-59
2022/09/12 03:15:02;;;;;;;2.38;1.90;;;;;;;;;;5030149;28;20030;-60
2022/09/12 03:17:45;;;;;;;2.00;1.80;;;;;;;;;;5011939;28;20467;-60
2022/09/12 03:20:11;;;;;;;3.97;2.08;;;;;;;;;;5026064;28;20030;-61
2022/09/12 03:22:49;;;;;;;4.53;2.78;;;;;;;;;;5030912;28;20046;-60
2022/09/12 03:25:18;;;;;;;3.00;2.30;;;;;;;;;;5029703;28;20516;-59
2022/09/12 03:27:46;;;;;;;2.75;2.17;;;;;;;;;;5030035;28;20040;-62
2022/09/12 03:30:12;;;;;;;3.05;2.20;;;;;;;;;;5031112;28;20556;-61
2022/09/12 03:32:46;;;;;;;2.47;1.90;;;;;;;;;;5030334;28;20025;-62
2022/09/12 03:35:13;;;;;;;3.65;2.20;;;;;;;;;;5029168;28;20032;-62
2022/09/12 03:37:39;;;;;;;2.83;2.10;;;;;;;;;;5027809;28;20037;-61
2022/09/12 03:40:06;;;;;;;3.63;2.28;;;;;;;;;;5030511;28;20044;-60
2022/09/12 03:42:32;;;;;;;2.80;2.10;;;;;;;;;;5027716;28;20484;-62
2022/09/12 03:44:58;;;;;;;2.20;1.85;;;;;;;;;;5028345;28;20040;-61
2022/09/12 03:47:24;;;;;;;6.93;2.00;;;;;;;;;;5029542;28;20037;-62
2022/09/12 03:49:51;;;;;;;2.60;2.20;;;;;;;;;;5028650;28;20042;-60
2022/09/12 03:52:17;;;;;;;2.67;2.03;;;;;;;;;;5029177;28;20109;-60
2022/09/12 03:54:43;;;;;;;2.88;2.22;;;;;;;;;;5028473;28;20038;-60
2022/09/12 03:57:09;;;;;;;7.53;2.10;;;;;;;;;;5023193;28;20429;-61
2022/09/12 03:59:36;;;;;;;2.42;2.17;;;;;;;;;;5029898;28;20037;-62
2022/09/12 04:02:03;;;;;;;3.53;2.67;;;;;;;;;;5029386;28;20477;-62
2022/09/12 04:04:29;;;;;;;3.15;2.60;;;;;;;;;;5028064;28;20032;-62
2022/09/12 04:06:55;;;;;;;3.25;2.70;;;;;;;;;;5024620;28;20034;-61
2022/09/12 04:09:21;;;;;;;3.08;2.50;;;;;;;;;;5027544;28;20026;-61
2022/09/12 04:11:47;;;;;;;4.65;3.35;;;;;;;;;;5026470;28;20026;-59
2022/09/12 04:14:13;;;;;;;3.38;2.38;;;;;;;;;;5030095;28;20025;-60
2022/09/12 04:16:38;;;;;;;4.35;2.50;;;;;;;;;;5027132;28;20029;-60
2022/09/12 04:19:04;;;;;;;3.33;2.58;;;;;;;;;;5029505;28;20068;-61
2022/09/12 04:21:30;;;;;;;4.32;2.28;;;;;;;;;;5026798;28;20025;-62
2022/09/12 04:23:57;;;;;;;3.55;2.60;;;;;;;;;;5020362;28;20087;-60
2022/09/12 04:26:23;;;;;;;4.97;2.70;;;;;;;;;;5027596;28;20022;-62
2022/09/12 04:28:52;;;;;;;3.42;2.35;;;;;;;;;;5027059;28;20052;-60
2022/09/12 04:31:21;;;;;;;3.10;2.63;;;;;;;;;;5008552;28;20025;-61
2022/09/12 04:33:52;;;;;;;3.80;3.03;;;;;;;;;;5029425;28;20047;-60
2022/09/12 04:36:18;;;;;;;3.58;2.83;;;;;;;;;;5022576;28;20089;-61
2022/09/12 04:38:45;;;;;;;4.43;3.17;;;;;;;;;;5027806;28;20029;-60
2022/09/12 04:41:12;;;;;;;5.18;3.40;;;;;;;;;;5026046;28;20104;-60
2022/09/12 04:43:38;;;;;;;4.50;3.60;;;;;;;;;;5025778;28;20021;-61
2022/09/12 04:46:04;;;;;;;5.32;4.03;;;;;;;;;;5027427;28;20037;-62
2022/09/12 04:48:30;;;;;;;5.43;3.85;;;;;;;;;;5028413;28;20112;-65
2022/09/12 04:51:05;;;;;;;6.03;4.03;;;;;;;;;;5027879;28;20036;-62
2022/09/12 04:53:31;;;;;;;5.97;4.30;;;;;;;;;;5027006;28;20060;-60
2022/09/12 04:56:01;;;;;;;6.18;4.13;;;;;;;;;;5029056;28;20025;-61
2022/09/12 04:58:27;;;;;;;3.90;3.00;;;;;;;;;;5001171;28;20102;-62
2022/09/12 05:00:53;;;;;;;4.10;3.30;;;;;;;;;;5029347;28;20427;-62
2022/09/12 05:03:18;;;;;;;3.63;2.90;;;;;;;;;;5031335;28;20025;-63
2022/09/12 05:05:44;;;;;;;3.88;2.90;;;;;;;;;;5032901;28;20082;-60
2022/09/12 05:08:10;;;;;;;4.80;2.95;;;;;;;;;;5025513;28;20017;-60
2022/09/12 05:10:37;;;;;;;3.60;2.55;;;;;;;;;;5018799;28;20029;-62
2022/09/12 05:13:03;;;;;;;3.17;2.65;;;;;;;;;;5029324;28;20017;-60
2022/09/12 05:15:29;;;;;;;3.72;2.70;;;;;;;;;;5027281;28;20037;-60
2022/09/12 05:17:55;;;;;;;3.45;2.95;;;;;;;;;;5029187;28;20049;-60
2022/09/12 05:20:21;;;;;;;4.22;3.10;;;;;;;;;;5029296;28;20022;-61
2022/09/12 05:22:47;;;;;;;5.20;3.08;;;;;;;;;;5025800;28;20034;-60
2022/09/12 05:25:13;;;;;;;7.10;3.15;;;;;;;;;;5032110;28;20484;-60
2022/09/12 05:27:39;;;;;;;3.53;2.67;;;;;;;;;;5033210;28;20064;-60
2022/09/12 05:30:05;;;;;;;3.75;2.83;;;;;;;;;;5033622;28;20025;-59
2022/09/12 05:32:31;;;;;;;4.45;2.83;;;;;;;;;;5031973;28;20075;-59
2022/09/12 05:34:57;;;;;;;3.95;3.00;;;;;;;;;;5031798;28;20021;-60
2022/09/12 05:37:23;;;;;;;4.38;3.67;;;;;;;;;;5031993;28;20036;-59
2022/09/12 05:39:50;;;;;;;4.57;3.58;;;;;;;;;;5029613;28;20042;-60
2022/09/12 05:42:16;;;;;;;4.63;3.72;;;;;;;;;;5026916;28;20126;-59
2022/09/12 05:44:41;;;;;;;5.50;3.55;;;;;;;;;;5018285;28;20029;-59
2022/09/12 05:47:10;;;;;;;4.85;4.10;;;;;;;;;;5032953;28;20034;-60
2022/09/12 05:49:37;;;;;;;4.38;3.45;;;;;;;;;;5011447;28;20036;-60
2022/09/12 05:52:03;;;;;;;4.65;3.58;;;;;;;;;;5031860;28;20084;-60
2022/09/12 05:54:29;;;;;;;4.35;3.92;;;;;;;;;;5033397;28;20491;-60
2022/09/12 05:56:55;;;;;;;4.47;3.25;;;;;;;;;;5031272;28;20052;-60
2022/09/12 05:59:22;;;;;;;4.13;3.45;;;;;;;;;;5030654;28;20036;-61
2022/09/12 06:01:49;;;;;;;4.35;3.58;;;;;;;;;;5031240;28;20556;-60
2022/09/12 06:04:15;;;;;;;9.32;3.33;;;;;;;;;;5020683;28;20052;-60
2022/09/12 06:06:43;;;;;;;5.53;4.03;;;;;;;;;;5028218;28;20034;-59
2022/09/12 06:09:10;;;;;;;5.18;3.75;;;;;;;;;;5030037;28;20044;-60
2022/09/12 06:11:36;;;;;;;4.38;3.97;;;;;;;;;;5028499;28;20029;-60
2022/09/12 06:14:03;;;;;;;5.32;3.92;;;;;;;;;;5031327;28;20022;-59
2022/09/12 06:16:30;;;;;;;6.13;3.97;;;;;;;;;;5028614;28;20049;-59
2022/09/12 06:18:57;;;;;;;4.88;4.20;;;;;;;;;;5031487;28;20131;-60
2022/09/12 06:21:25;;;;;;;4.82;3.90;;;;;;;;;;5030020;28;20579;-59
2022/09/12 06:23:51;;;;;;;4.93;4.05;;;;;;;;;;5031577;28;20042;-60
2022/09/12 06:26:20;;;;;;;5.45;3.95;;;;;;;;;;5031918;28;20033;-60
2022/09/12 06:28:46;;;;;;;5.15;4.47;;;;;;;;;;5031416;28;20424;-60
2022/09/12 06:31:14;;;;;;;5.88;5.20;;;;;;;;;;5028305;28;20025;-60
2022/09/12 06:33:42;;;;;;;6.22;4.90;;;;;;;;;;5026653;28;20038;-60
2022/09/12 06:36:12;;;;;;;5.38;4.88;;;;;;;;;;5029076;28;20481;-60
2022/09/12 06:38:38;;;;;;;7.03;5.57;;;;;;;;;;5033103;28;20809;-60
2022/09/12 06:41:06;;;;;;;6.38;5.68;;;;;;;;;;5027768;28;20548;-60
2022/09/12 06:43:32;;;;;;;6.63;4.75;;;;;;;;;;5031009;28;20493;-60
2022/09/12 06:45:58;;;;;;;7.00;5.10;;;;;;;;;;5030080;28;20041;-60
2022/09/12 06:48:24;;;;;;;6.68;4.82;;;;;;;;;;5029154;28;20057;-60
2022/09/12 06:50:57;;;;;;;5.80;4.85;;;;;;;;;;5032311;28;20064;-60
2022/09/12 06:53:23;;;;;;;5.88;4.85;;;;;;;;;;5027012;28;20111;-60
2022/09/12 06:56:16;;;;;;;5.85;4.55;;;;;;;;;;5029661;28;20034;-60
2022/09/12 06:58:42;;;;;;;6.25;5.00;;;;;;;;;;5016332;28;20048;-59
2022/09/12 07:01:09;;;;;;;5.72;4.85;;;;;;;;;;5025205;28;20021;-60
2022/09/12 07:03:36;;;;;;;5.57;4.40;;;;;;;;;;5030765;28;20034;-59
2022/09/12 07:06:06;;;;;;;6.63;4.60;;;;;;;;;;5031017;28;20115;-60
2022/09/12 07:08:33;;;;;;;5.93;4.55;;;;;;;;;;5029468;28;20036;-61
2022/09/12 07:11:00;;;;;;;5.32;4.82;;;;;;;;;;5029602;28;20108;-60
2022/09/12 07:13:26;;;;;;;6.72;4.40;;;;;;;;;;5028251;28;20104;-60
2022/09/12 07:15:52;;;;;;;10.73;4.65;;;;;;;;;;5024377;28;20445;-60
2022/09/12 07:18:18;;;;;;;5.03;4.03;;;;;;;;;;5028404;28;20053;-59
2022/09/12 07:20:44;;;;;;;5.20;3.92;;;;;;;;;;5027718;28;20940;-60
2022/09/12 07:23:10;;;;;;;5.78;4.45;;;;;;;;;;5025637;28;20033;-61
2022/09/12 07:25:36;;;;;;;7.47;4.32;;;;;;;;;;5023712;28;20530;-60
2022/09/12 07:28:02;;;;;;;6.10;4.20;;;;;;;;;;5026364;28;20118;-59
2022/09/12 07:30:28;;;;;;;4.40;3.63;;;;;;;;;;5026867;28;20025;-60
2022/09/12 07:32:54;;;;;;;6.22;4.10;;;;;;;;;;5029725;28;20029;-61
2022/09/12 07:35:21;;;;;;;4.90;3.47;;;;;;;;;;5017130;28;20025;-60
2022/09/12 07:37:47;;;;;;;5.93;3.55;;;;;;;;;;5026774;28;20041;-60
2022/09/12 07:40:13;;;;;;;3.78;2.80;;;;;;;;;;5021579;28;20037;-61
2022/09/12 07:42:39;;;;;;;3.92;2.95;;;;;;;;;;5024832;28;20033;-60
2022/09/12 07:45:05;;;;;;;3.63;2.58;;;;;;;;;;5024177;28;20485;-60
2022/09/12 07:47:32;;;;;;;4.20;2.33;;;;;;;;;;5029251;28;20064;-60
2022/09/12 07:49:58;;;;;;;4.03;2.50;;;;;;;;;;5029449;28;20104;-61
2022/09/12 07:52:24;;;;;;;3.00;2.47;;;;;;;;;;5024644;28;20013;-60
2022/09/12 07:54:50;;;;;;;3.97;2.33;;;;;;;;;;5024032;28;20026;-60
2022/09/12 07:57:16;;;;;;;4.35;2.30;;;;;;;;;;5020380;28;20029;-60
2022/09/12 07:59:42;;;;;;;2.72;1.65;;;;;;;;;;5028268;28;20026;-60
2022/09/12 08:02:12;;;;;;;3.22;1.80;;;;;;;;;;5021484;28;20048;-61
2022/09/12 08:04:39;;;;;;;2.40;2.08;;;;;;;;;;5023194;28;20026;-60
2022/09/12 08:07:05;;;;;;;2.50;1.35;;;;;;;;;;5016214;28;20068;-60
2022/09/12 08:09:31;;;;;;;5.03;2.03;;;;;;;;;;5026826;28;20029;-60
2022/09/12 08:11:57;;;;;;;4.57;1.55;;;;;;;;;;5027748;28;20025;-60
2022/09/12 08:14:23;;;;;;;2.15;1.67;;;;;;;;;;5027623;28;20025;-61
2022/09/12 08:16:49;;;;;;;2.15;1.35;;;;;;;;;;5030426;28;20095;-60
2022/09/12 08:19:15;;;;;;;3.00;1.70;;;;;;;;;;5024070;28;20056;-60
2022/09/12 08:21:41;;;;;;;2.15;1.58;;;;;;;;;;5029939;28;20519;-60
2022/09/12 08:24:07;;;;;;;1.90;1.58;;;;;;;;;;5030267;28;20033;-60
2022/09/12 08:26:33;;;;;;;2.28;1.60;;;;;;;;;;5029446;28;20504;-60
2022/09/12 08:29:00;;;;;;;1.83;1.50;;;;;;;;;;5026462;28;20029;-61
2022/09/12 08:31:27;;;;;;;2.78;1.40;;;;;;;;;;5028384;28;20026;-60
2022/09/12 08:33:55;;;;;;;3.97;1.55;;;;;;;;;;5026936;28;20032;-60
2022/09/12 08:36:23;;;;;;;1.58;1.17;;;;;;;;;;5029988;28;20101;-60
2022/09/12 08:38:50;;;;;;;3.67;1.83;;;;;;;;;;5035101;28;20030;-60
2022/09/12 08:41:22;;;;;;;2.15;1.65;;;;;;;;;;5031277;28;20025;-60
2022/09/12 08:43:59;;;;;;;2.83;1.73;;;;;;;;;;5031305;28;20083;-60
2022/09/12 08:46:31;;;;;;;2.45;1.45;;;;;;;;;;5027978;28;20122;-60
2022/09/12 08:48:59;;;;;;;1.70;1.07;;;;;;;;;;5033005;28;20442;-60
2022/09/12 08:51:27;;;;;;;3.33;1.30;;;;;;;;;;5028539;28;20101;-60
2022/09/12 08:53:55;;;;;;;2.28;1.25;;;;;;;;;;5031703;28;20026;-60
2022/09/12 08:56:21;;;;;;;2.72;1.55;;;;;;;;;;5030533;28;20037;-60
2022/09/12 08:58:47;;;;;;;8.38;2.22;;;;;;;;;;5024516;28;20477;-60
2022/09/12 09:01:32;;;;;;;2.15;1.50;;;;;;;;;;5031603;28;20060;-60
2022/09/12 09:04:14;;;;;;;1.70;1.35;;;;;;;;;;5034340;28;20079;-60
2022/09/12 09:06:50;;;;;;;6.55;2.00;;;;;;;;;;5032625;28;20037;-59
2022/09/12 09:09:28;;;;;;;6.82;1.80;;;;;;;;;;5027813;28;20032;-60
2022/09/12 09:12:12;;;;;;;2.15;1.30;;;;;;;;;;5022411;28;20485;-59
2022/09/12 09:15:01;;;;;;;3.13;1.63;;;;;;;;;;5023007;28;20052;-59
2022/09/12 09:17:47;;;;;;;3.90;1.35;;;;;;;;;;5022241;28;20030;-60
2022/09/12 09:20:27;;;;;;;3.17;1.67;;;;;;;;;;5024400;28;20044;-60
2022/09/12 09:23:01;;;;;;;1.35;1.10;;;;;;;;;;5029726;28;20025;-59
2022/09/12 09:25:50;;;;;;;1.70;0.82;;;;;;;;;;5027058;28;20026;-59
2022/09/12 09:28:22;;;;;;;1.88;0.90;;;;;;;;;;5026074;28;20033;-60
2022/09/12 09:30:48;;;;;;;1.38;0.70;;;;;;;;;;5022831;28;20063;-59
2022/09/12 09:33:22;;;;;;;2.72;0.75;;;;;;;;;;5031267;28;20092;-60
2022/09/12 09:35:51;;;;;;;3.05;1.00;;;;;;;;;;5029202;28;20024;-60
2022/09/12 09:38:22;;;;;;;2.65;0.70;;;;;;;;;;5025093;28;20028;-59
2022/09/12 09:40:48;;;;;;;2.58;0.90;;;;;;;;;;5026529;28;20034;-59
2022/09/12 09:43:22;;;;;;;1.55;0.90;;;;;;;;;;5018385;28;20026;-59
2022/09/12 09:45:48;;;;;;;1.05;0.50;;;;;;;;;;5025448;28;20428;-60
2022/09/12 09:48:27;;;;;;;2.70;0.98;;;;;;;;;;5023766;28;20049;-60
2022/09/12 09:50:53;;;;;;;3.15;0.88;;;;;;;;;;5027201;28;20066;-60
2022/09/12 09:53:25;;;;;;;2.65;0.80;;;;;;;;;;5027355;28;20017;-60
2022/09/12 09:55:52;;;;;;;1.25;0.60;;;;;;;;;;5022636;28;20100;-60
2022/09/12 09:58:30;;;;;;;3.08;0.70;;;;;;;;;;5026466;28;20052;-60
2022/09/12 10:01:00;;;;;;;3.38;0.93;;;;;;;;;;5027447;28;20024;-59
2022/09/12 10:03:39;;;;;;;2.33;0.80;;;;;;;;;;5019181;28;20021;-59
2022/09/12 10:06:22;;;;;;;3.60;1.42;;;;;;;;;;5032311;28;20025;-60
2022/09/12 10:08:48;;;;;;;1.10;0.50;;;;;;;;;;5030224;28;20480;-60
2022/09/12 10:11:21;;;;;;;0.90;0.52;;;;;;;;;;5025386;28;20096;-59
2022/09/12 10:13:47;;;;;;;;;;;;;;;;;;5025492;28;20113;-60
2022/09/12 10:16:23;;;;;;;1.95;0.65;;;;;;;;;;5027993;28;19995;-59
2022/09/12 10:18:51;;;;;;;3.10;0.80;;;;;;;;;;5020647;28;20131;-60
2022/09/12 10:21:22;;;;;;;1.13;0.60;;;;;;;;;;5027856;28;20060;-60
2022/09/12 10:23:52;;;;;;;1.35;0.77;;;;;;;;;;5025799;28;20025;-60
2022/09/12 10:26:20;;;;;;;0.63;0.50;;;;;;;;;;5028362;28;20091;-60
2022/09/12 10:28:52;;;;;;;0.65;0.45;;;;;;;;;;5025271;28;20037;-60
2022/09/12 10:31:27;;;;;;;1.27;0.73;;;;;;;;;;5019548;28;20033;-60
2022/09/12 10:33:54;;;;;;;2.72;0.50;;;;;;;;;;5029348;28;20064;-60
2022/09/12 10:36:20;;;;;;;0.98;0.40;;;;;;;;;;5028876;28;20079;-59
2022/09/12 10:38:55;;;;;;;1.40;0.50;;;;;;;;;;5025609;28;20057;-60
2022/09/12 10:41:21;;;;;;;1.45;0.60;;;;;;;;;;5027556;28;20555;-59
2022/09/12 10:43:47;;;;;;;1.90;0.57;;;;;;;;;;5016524;28;20033;-59
2022/09/12 10:46:19;;;;;;;0.68;0.50;;;;;;;;;;5030374;28;20030;-59
2022/09/12 10:48:49;;;;;;;1.25;0.57;;;;;;;;;;5032700;28;20025;-59
2022/09/12 10:51:24;;;;;;;1.75;0.82;;;;;;;;;;5029491;28;20469;-59
2022/09/12 10:53:51;;;;;;;1.60;0.60;;;;;;;;;;5023680;28;20484;-60
2022/09/12 10:56:22;;;;;;;3.92;0.70;;;;;;;;;;5029346;28;20388;-59
2022/09/12 10:59:06;;;;;;;1.58;0.47;;;;;;;;;;5020589;28;20484;-59
2022/09/12 11:01:35;;;;;;;1.00;0.57;;;;;;;;;;5026937;28;20030;-59
2022/09/12 11:04:07;;;;;;;0.80;0.57;;;;;;;;;;5019164;28;20481;-59
2022/09/12 11:06:38;;;;;;;1.23;0.60;;;;;;;;;;5030360;28;20034;-59
2022/09/12 11:09:11;;;;;;;2.78;0.80;;;;;;;;;;5023949;28;20151;-60
2022/09/12 11:11:40;;;;;;;0.88;0.63;;;;;;;;;;5020959;28;20031;-60
2022/09/12 11:14:11;;;;;;;2.00;0.93;;;;;;;;;;5024270;28;20125;-59
2022/09/12 11:16:42;;;;;;;0.98;0.60;;;;;;;;;;5023805;28;20038;-60
2022/09/12 11:19:27;;;;;;;2.92;1.05;;;;;;;;;;5024912;28;20049;-60
2022/09/12 11:22:05;;;;;;;1.23;0.68;;;;;;;;;;5023462;28;20123;-59
2022/09/12 11:24:31;;;;;;;1.35;0.70;;;;;;;;;;5027245;28;20374;-59
2022/09/12 11:27:01;;;;;;;1.20;0.60;;;;;;;;;;5023044;28;20026;-60
2022/09/12 11:29:37;;;;;;;1.23;0.77;;;;;;;;;;5026673;28;20029;-60
2022/09/12 11:32:23;;;;;;;0.40;0.30;;;;;;;;;;5031775;28;20028;-59
2022/09/12 11:35:08;;;;;;;2.50;0.70;;;;;;;;;;5015050;28;20045;-60
2022/09/12 11:37:53;;;;;;;9.00;0.70;;;;;;;;;;5030837;28;20142;-59
2022/09/12 11:40:19;;;;;;;1.67;0.55;;;;;;;;;;5018168;28;20033;-59
2022/09/12 11:42:46;;;;;;;2.60;0.52;;;;;;;;;;5023176;28;20060;-60
2022/09/12 11:45:15;;;;;;;2.50;0.47;;;;;;;;;;5031850;28;20048;-60
2022/09/12 11:47:42;;;;;;;1.02;0.55;;;;;;;;;;5027365;28;20515;-60
2022/09/12 11:50:18;;;;;;;1.02;0.73;;;;;;;;;;5030961;28;20026;-60
2022/09/12 11:52:44;;;;;;;0.60;0.50;;;;;;;;;;5027074;28;20026;-61
2022/09/12 11:55:17;;;;;;;1.95;0.40;;;;;;;;;;5031507;28;20437;-60
2022/09/12 11:57:43;;;;;;;;;;;;;;;;;;5031264;28;20068;-60
2022/09/12 12:00:16;;;;;;;2.20;0.82;;;;;;;;;;5028703;28;19943;-60
2022/09/12 12:02:42;;;;;;;;;;;;;;;;;;5031981;28;20578;-60
2022/09/12 12:05:19;;;;;;;1.65;0.73;;;;;;;;;;5029640;28;19905;-60
2022/09/12 12:07:51;;;;;;;1.27;0.73;;;;;;;;;;5009697;28;20030;-60
2022/09/12 12:10:21;;;;;;;0.63;0.50;;;;;;;;;;5027063;28;20040;-60
2022/09/12 12:12:48;;;;;;;3.08;0.40;;;;;;;;;;5020669;28;20366;-60
2022/09/12 12:15:15;;;;;;;2.75;0.50;;;;;;;;;;5023418;28;20045;-60
2022/09/12 12:17:42;;;;;;;0.88;0.45;;;;;;;;;;5031220;28;20068;-60
2022/09/12 12:20:16;;;;;;;1.23;0.38;;;;;;;;;;5028614;28;20029;-60
2022/09/12 12:22:53;;;;;;;5.45;0.50;;;;;;;;;;5021412;28;20393;-60
2022/09/12 12:25:18;;;;;;;0.60;0.45;;;;;;;;;;5026657;28;20555;-60
2022/09/12 12:27:46;;;;;;;1.75;0.45;;;;;;;;;;5027554;28;20038;-60
2022/09/12 12:30:33;;;;;;;0.93;0.50;;;;;;;;;;5028841;28;20032;-60
2022/09/12 12:32:59;;;;;;;2.20;0.60;;;;;;;;;;5009735;28;20467;-60
2022/09/12 12:35:39;;;;;;;2.00;0.50;;;;;;;;;;5027073;28;20025;-60
2022/09/12 12:38:25;;;;;;;0.47;0.35;;;;;;;;;;5026726;28;20095;-60
2022/09/12 12:40:51;;;;;;;2.22;0.40;;;;;;;;;;5029748;28;20041;-60
2022/09/12 12:43:31;;;;;;;1.90;0.40;;;;;;;;;;5027540;28;20433;-60
2022/09/12 12:46:04;;;;;;;0.95;0.40;;;;;;;;;;5021182;28;20569;-60
2022/09/12 12:48:32;;;;;;;0.98;0.30;;;;;;;;;;5025524;28;20080;-61
2022/09/12 12:51:17;;;;;;;0.82;0.30;;;;;;;;;;5027962;28;20032;-60
2022/09/12 12:53:43;;;;;;;0.93;0.40;;;;;;;;;;5027213;28;20052;-60
2022/09/12 12:56:25;;;;;;;0.90;0.47;;;;;;;;;;5029796;28;20025;-60
2022/09/12 12:58:58;;;;;;;0.47;0.20;;;;;;;;;;5029471;28;20393;-60
2022/09/12 13:01:24;;;;;;;0.80;0.40;;;;;;;;;;5028722;28;20051;-60
2022/09/12 13:03:55;;;;;;;0.60;0.35;;;;;;;;;;5026002;28;25387;-60
2022/09/12 13:06:27;;;;;;;1.35;0.50;;;;;;;;;;5028475;28;20542;-60
2022/09/12 13:09:01;;;;;;;0.65;0.32;;;;;;;;;;5030198;28;20057;-60
2022/09/12 13:11:32;;;;;;;0.52;0.40;;;;;;;;;;5029554;28;20036;-60
2022/09/12 13:13:59;;;;;;;1.20;0.50;;;;;;;;;;5018121;28;20116;-60
2022/09/12 13:16:30;;;;;;;1.20;0.47;;;;;;;;;;5023626;28;20036;-60
2022/09/12 13:18:57;;;;;;;2.67;0.60;;;;;;;;;;5030152;28;20064;-60
2022/09/12 13:21:23;;;;;;;0.57;0.40;;;;;;;;;;5029995;28;20385;-60
2022/09/12 13:24:05;;;;;;;1.08;0.60;;;;;;;;;;5032624;28;20040;-60
2022/09/12 13:26:39;;;;;;;0.98;0.40;;;;;;;;;;5025160;28;20031;-60
2022/09/12 13:29:19;;;;;;;0.77;0.50;;;;;;;;;;5030003;28;20030;-60
2022/09/12 13:31:46;;;;;;;0.82;0.40;;;;;;;;;;5025861;28;20492;-60
2022/09/12 13:34:17;;;;;;;0.88;0.43;;;;;;;;;;5025190;28;20025;-60
2022/09/12 13:37:05;;;;;;;1.08;0.55;;;;;;;;;;5034180;28;20449;-60
2022/09/12 13:39:39;;;;;;;0.82;0.40;;;;;;;;;;5028842;28;20033;-61
2022/09/12 13:42:24;;;;;;;1.20;0.47;;;;;;;;;;5030361;28;20029;-60
2022/09/12 13:44:53;;;;;;;1.35;0.60;;;;;;;;;;5031053;28;20033;-60
2022/09/12 13:47:25;;;;;;;0.52;0.40;;;;;;;;;;5030753;28;20029;-59
2022/09/12 13:49:51;;;;;;;0.93;0.40;;;;;;;;;;5033303;28;20584;-60
2022/09/12 13:52:22;;;;;;;1.83;0.50;;;;;;;;;;5025929;28;20184;-60
2022/09/12 13:54:50;;;;;;;0.70;0.40;;;;;;;;;;5025716;28;20374;-60
2022/09/12 13:57:29;;;;;;;0.77;0.75;;;;;;;;;;5029208;28;20057;-60
2022/09/12 13:59:56;;;;;;;0.70;0.50;;;;;;;;;;5031871;28;20021;-60
2022/09/12 14:02:24;;;;;;;1.05;0.55;;;;;;;;;;5029906;28;20530;-60
2022/09/12 14:05:10;;;;;;;0.52;0.20;;;;;;;;;;5033662;28;20104;-60
2022/09/12 14:07:51;;;;;;;0.77;0.50;;;;;;;;;;5020910;28;20780;-60
2022/09/12 14:10:20;;;;;;;1.10;0.60;;;;;;;;;;5022652;28;20080;-60
2022/09/12 14:12:49;;;;;;;3.40;0.63;;;;;;;;;;5025373;28;20063;-60
2022/09/12 14:15:17;;;;;;;2.28;0.50;;;;;;;;;;5029284;28;20097;-60
2022/09/12 14:17:50;;;;;;;2.22;0.55;;;;;;;;;;5027971;28;20504;-60
2022/09/12 14:20:17;;;;;;;1.13;0.50;;;;;;;;;;5026428;28;20714;-60
2022/09/12 14:22:43;;;;;;;1.50;0.73;;;;;;;;;;5013114;28;20021;-60
2022/09/12 14:25:16;;;;;;;2.05;0.60;;;;;;;;;;5032472;28;20044;-60
2022/09/12 14:27:46;;;;;;;0.65;0.50;;;;;;;;;;5028896;28;20492;-60
2022/09/12 14:30:18;;;;;;;4.47;0.65;;;;;;;;;;5026124;28;20061;-60
2022/09/12 14:33:01;;;;;;;1.02;0.40;;;;;;;;;;5025147;28;20026;-60
2022/09/12 14:35:31;;;;;;;1.40;0.55;;;;;;;;;;5032060;28;20487;-60
2022/09/12 14:37:57;;;;;;;3.67;0.55;;;;;;;;;;5022128;28;20072;-61
2022/09/12 14:40:23;;;;;;;1.77;0.63;;;;;;;;;;5027964;28;20021;-60
2022/09/12 14:42:51;;;;;;;2.97;0.55;;;;;;;;;;5029972;28;20073;-60
2022/09/12 14:45:28;;;;;;;1.67;0.65;;;;;;;;;;5027926;28;20048;-60
2022/09/12 14:47:55;;;;;;;1.48;0.68;;;;;;;;;;5026603;28;20030;-60
2022/09/12 14:50:23;;;;;;;2.95;0.47;;;;;;;;;;5030542;28;20030;-61
2022/09/12 14:53:05;;;;;;;1.73;0.77;;;;;;;;;;5028637;28;20021;-60
2022/09/12 14:55:32;;;;;;;1.00;0.50;;;;;;;;;;5020897;28;20368;-60
2022/09/12 14:58:15;;;;;;;1.27;0.60;;;;;;;;;;5026451;28;20026;-60
2022/09/12 15:00:53;;;;;;;1.52;0.50;;;;;;;;;;5023938;28;20642;-59